createdAt,value
2018-02-12T16:46:04.505Z,1016.5
2018-02-12T16:51:03.742Z,1016.5
2018-02-12T16:56:04.356Z,1016.6
2018-02-12T17:01:04.129Z,1016.7
2018-02-12T17:06:03.762Z,1016.7
2018-02-12T17:11:04.252Z,1016.7
2018-02-12T17:16:03.855Z,1016.8
2018-02-12T17:21:04.613Z,1016.8
2018-02-12T17:26:04.254Z,1016.9
2018-02-12T17:31:04.028Z,1016.9
2018-02-12T17:36:04.600Z,1016.9
2018-02-12T17:41:04.618Z,1017
2018-02-12T17:46:04.277Z,1017
2018-02-12T17:51:03.874Z,1017.1
2018-02-12T17:56:04.575Z,1017.1
2018-02-12T18:01:04.203Z,1017.2
2018-02-12T18:06:03.922Z,1017.3
2018-02-12T18:11:04.691Z,1017.2
2018-02-12T18:16:04.879Z,1017.3
2018-02-12T18:21:05.066Z,1017.3
2018-02-12T18:26:04.499Z,1017.3
2018-02-12T18:31:05.934Z,1017.3
2018-02-12T18:36:06.446Z,1017.4
2018-02-12T18:41:06.372Z,1017.4
2018-02-12T18:46:03.939Z,1017.4
2018-02-12T18:51:06.230Z,1017.4
2018-02-12T18:56:04.995Z,1017.4
2018-02-12T19:01:05.716Z,1017.4
2018-02-12T19:06:06.387Z,1017.5
2018-02-12T19:11:06.405Z,1017.5
2018-02-12T19:16:05.976Z,1017.5
2018-02-12T19:21:06.714Z,1017.5
2018-02-12T19:26:06.396Z,1017.6
2018-02-12T19:31:06.103Z,1017.6
2018-02-12T19:36:05.983Z,1017.6
2018-02-12T19:41:05.975Z,1017.7
2018-02-12T19:46:06.650Z,1017.6
2018-02-12T19:51:06.194Z,1017.7
2018-02-12T19:56:06.013Z,1017.7
2018-02-12T20:01:06.068Z,1017.8
2018-02-12T20:06:06.510Z,1017.7
2018-02-12T20:11:05.782Z,1017.7
2018-02-12T20:16:06.469Z,1017.7
2018-02-12T20:21:06.181Z,1017.7
2018-02-12T20:26:05.939Z,1017.8
2018-02-12T20:31:06.592Z,1017.8
2018-02-12T20:36:06.108Z,1017.9
2018-02-12T20:41:06.752Z,1017.9
2018-02-12T20:46:06.431Z,1017.9
2018-02-12T20:51:06.421Z,1017.9
2018-02-12T20:56:05.991Z,1018
2018-02-12T21:01:06.478Z,1017.9
2018-02-12T21:06:05.612Z,1017.9
2018-02-12T21:11:05.254Z,1017.9
2018-02-12T21:16:04.456Z,1018
2018-02-12T21:21:06.067Z,1018
2018-02-12T21:26:06.446Z,1017.9
2018-02-12T21:31:06.199Z,1018
2018-02-12T21:36:05.598Z,1018
2018-02-12T21:41:06.014Z,1017.9
2018-02-12T21:46:04.680Z,1018
2018-02-12T21:51:06.333Z,1017.9
2018-02-12T21:56:04.072Z,1018
2018-02-12T22:01:04.608Z,1018
2018-02-12T22:06:04.288Z,1018
2018-02-12T22:11:04.372Z,1017.9
2018-02-12T22:16:04.108Z,1018
2018-02-12T22:21:03.849Z,1017.9
2018-02-12T22:26:04.474Z,1018
2018-02-12T22:31:04.119Z,1017.9
2018-02-12T22:36:03.746Z,1017.9
2018-02-12T22:41:03.796Z,1017.9
2018-02-12T22:46:04.421Z,1017.9
2018-02-12T22:51:04.199Z,1017.8
2018-02-12T22:56:03.871Z,1017.8
2018-02-12T23:01:04.475Z,1017.8
2018-02-12T23:06:04.129Z,1017.8
2018-02-12T23:11:04.310Z,1017.9
2018-02-12T23:16:03.907Z,1017.9
2018-02-12T23:21:04.663Z,1017.8
2018-02-12T23:46:04.559Z,1017.8
2018-02-12T23:51:04.434Z,1017.8
2018-02-12T23:56:04.096Z,1017.8
